createdAt,value
2023-04-03T00:00:29.884Z,7.5
2023-04-03T00:01:36.965Z,7.5
2023-04-03T00:02:44.315Z,7.4
2023-04-03T00:03:51.109Z,7.4
2023-04-03T00:04:58.230Z,7.4
2023-04-03T00:06:04.799Z,7.4
2023-04-03T00:07:11.956Z,7.4
2023-04-03T00:08:19.550Z,7.4
2023-04-03T00:09:26.152Z,7.4
2023-04-03T00:10:33.317Z,7.4
2023-04-03T00:11:39.883Z,7.4
2023-04-03T00:12:46.870Z,7.4
2023-04-03T00:13:53.980Z,7.4
2023-04-03T00:15:01.219Z,7.4
2023-04-03T00:16:08.310Z,7.4
2023-04-03T00:17:14.989Z,7.4
2023-04-03T00:18:22.015Z,7.4
2023-04-03T00:19:29.068Z,7.4
2023-04-03T00:20:36.532Z,7.4
2023-04-03T00:21:43.327Z,7.4
2023-04-03T00:22:49.942Z,7.4
2023-04-03T00:23:56.988Z,7.4
2023-04-03T00:25:04.030Z,7.4
2023-04-03T00:26:11.170Z,7.4
2023-04-03T00:27:18.255Z,7.4
2023-04-03T00:28:24.887Z,7.4
2023-04-03T00:29:31.889Z,7.4
2023-04-03T00:30:39.320Z,7.4
2023-04-03T00:31:46.173Z,7.3
2023-04-03T00:32:53.302Z,7.3
2023-04-03T00:33:59.839Z,7.3
2023-04-03T00:35:06.910Z,7.3
2023-04-03T00:36:14.232Z,7.3
2023-04-03T00:37:21.158Z,7.3
2023-04-03T00:38:28.230Z,7.3
2023-04-03T00:39:34.900Z,7.3
2023-04-03T00:40:42.009Z,7.3
2023-04-03T00:41:49.061Z,7.3
2023-04-03T00:42:56.112Z,7.3
2023-04-03T00:44:03.251Z,7.3
2023-04-03T00:45:09.772Z,7.3
2023-04-03T00:46:16.952Z,7.3
2023-04-03T00:47:24.152Z,7.3
2023-04-03T00:48:31.260Z,7.3
2023-04-03T00:50:44.785Z,7.3
2023-04-03T00:51:51.972Z,7.3
2023-04-03T00:52:59.170Z,7.3
2023-04-03T00:54:06.156Z,7.3
2023-04-03T00:55:12.710Z,7.3
2023-04-03T00:56:19.930Z,7.3
2023-04-03T00:57:27.087Z,7.3
2023-04-03T00:58:34.069Z,7.3
2023-04-03T01:00:47.693Z,7.3
2023-04-03T01:01:55.177Z,7.3
2023-04-03T01:03:02.063Z,7.3
2023-04-03T01:04:09.167Z,7.3
2023-04-03T01:05:16.251Z,7.3
2023-04-03T01:06:22.735Z,7.3
2023-04-03T01:07:29.937Z,7.3
2023-04-03T01:08:37.438Z,7.3
2023-04-03T01:09:44.200Z,7.3
2023-04-03T01:10:51.186Z,7.3
2023-04-03T01:11:57.709Z,7.3
2023-04-03T01:13:04.933Z,7.3
2023-04-03T01:14:12.106Z,7.3
2023-04-03T01:15:19.224Z,7.3
2023-04-03T01:16:26.310Z,7.3
2023-04-03T01:17:32.882Z,7.3
2023-04-03T01:18:39.821Z,7.3
2023-04-03T01:19:47.122Z,7.3
2023-04-03T01:20:54.198Z,7.2
2023-04-03T01:22:01.280Z,7.2
2023-04-03T01:23:07.916Z,7.2
2023-04-03T01:24:14.904Z,7.2
2023-04-03T01:25:21.955Z,7.2
2023-04-03T01:26:29.043Z,7.2
2023-04-03T01:27:36.670Z,7.2
2023-04-03T01:28:43.122Z,7.2
2023-04-03T01:29:49.914Z,7.2
2023-04-03T01:30:57.066Z,7.2
2023-04-03T01:32:04.186Z,7.2
2023-04-03T01:33:11.193Z,7.2
2023-04-03T01:34:17.775Z,7.2
2023-04-03T01:35:24.957Z,7.2
2023-04-03T01:36:32.646Z,7.1
2023-04-03T01:37:39.139Z,7.2
2023-04-03T01:38:46.262Z,7.1
2023-04-03T01:39:52.857Z,7.1
2023-04-03T01:40:59.945Z,7.1
2023-04-03T01:42:06.989Z,7.1
2023-04-03T01:43:14.199Z,7.1
2023-04-03T01:44:21.172Z,7.1
2023-04-03T01:45:27.866Z,7.1
2023-04-03T01:46:34.902Z,7.1
2023-04-03T01:47:42.028Z,7.1
2023-04-03T01:48:49.174Z,7
2023-04-03T01:49:56.259Z,7
2023-04-03T01:51:02.878Z,7
2023-04-03T01:52:10.058Z,7
2023-04-03T01:54:24.250Z,7
2023-04-03T01:55:31.331Z,7
2023-04-03T01:56:37.874Z,7
2023-04-03T01:57:44.905Z,7
2023-04-03T01:58:52.124Z,7
2023-04-03T01:59:59.179Z,6.9
2023-04-03T02:01:08.480Z,6.9
2023-04-03T02:02:12.809Z,6.9
2023-04-03T02:03:19.928Z,6.9
2023-04-03T02:04:27.141Z,6.8
2023-04-03T02:05:34.116Z,6.8
2023-04-03T02:06:40.816Z,6.8
2023-04-03T02:07:47.864Z,6.8
2023-04-03T02:08:55.041Z,6.8
2023-04-03T02:10:02.123Z,6.8
2023-04-03T02:11:09.217Z,6.8
2023-04-03T02:12:16.705Z,6.8
2023-04-03T02:13:22.880Z,6.8
2023-04-03T02:14:30.001Z,6.8
2023-04-03T02:15:37.137Z,6.7
2023-04-03T02:16:44.402Z,6.7
2023-04-03T02:17:50.849Z,6.7
2023-04-03T02:18:57.870Z,6.7
2023-04-03T02:20:05.025Z,6.7
2023-04-03T02:21:12.103Z,6.6
2023-04-03T02:22:19.334Z,6.7
2023-04-03T02:23:25.769Z,6.7
2023-04-03T02:24:32.917Z,6.6
2023-04-03T02:25:40.027Z,6.7
2023-04-03T02:26:47.043Z,6.7
2023-04-03T02:29:00.714Z,6.6
2023-04-03T02:30:07.975Z,6.7
2023-04-03T02:31:15.008Z,6.7
2023-04-03T02:32:22.139Z,6.6
2023-04-03T02:33:29.245Z,6.7
2023-04-03T02:34:35.830Z,6.6
2023-04-03T02:35:42.904Z,6.7
2023-04-03T02:36:50.036Z,6.6
2023-04-03T02:37:57.177Z,6.6
2023-04-03T02:39:04.311Z,6.6
2023-04-03T02:40:10.796Z,6.6
2023-04-03T02:41:17.947Z,6.6
2023-04-03T02:42:24.962Z,6.6
2023-04-03T02:43:32.297Z,6.6
2023-04-03T02:44:39.270Z,6.6
2023-04-03T02:45:45.910Z,6.6
2023-04-03T02:46:52.864Z,6.6
2023-04-03T02:48:00.010Z,6.6
2023-04-03T02:49:07.114Z,6.6
2023-04-03T02:50:14.275Z,6.6
2023-04-03T02:51:20.731Z,6.6
2023-04-03T02:52:27.942Z,6.6
2023-04-03T02:53:35.120Z,6.6
2023-04-03T02:54:42.082Z,6.5
2023-04-03T02:55:49.274Z,6.5
2023-04-03T02:58:02.888Z,6.5
2023-04-03T02:59:10.244Z,6.5
2023-04-03T03:00:17.062Z,6.5
2023-04-03T03:01:24.432Z,6.5
2023-04-03T03:02:30.957Z,6.5
2023-04-03T03:03:37.858Z,6.5
2023-04-03T03:04:45.742Z,6.5
2023-04-03T03:05:52.220Z,6.5
2023-04-03T03:06:59.289Z,6.5
2023-04-03T03:08:05.903Z,6.5
2023-04-03T03:09:13.009Z,6.5
2023-04-03T03:10:20.024Z,6.4
2023-04-03T03:11:27.204Z,6.4
2023-04-03T03:12:34.362Z,6.4
2023-04-03T03:13:40.868Z,6.4
2023-04-03T03:14:48.012Z,6.4
2023-04-03T03:15:55.629Z,6.4
2023-04-03T03:17:02.215Z,6.4
2023-04-03T03:18:08.737Z,6.4
2023-04-03T03:19:15.922Z,6.4
2023-04-03T03:20:22.988Z,6.3
2023-04-03T03:21:30.055Z,6.3
2023-04-03T03:22:37.226Z,6.3
2023-04-03T03:23:44.360Z,6.3
2023-04-03T03:24:50.905Z,6.3
2023-04-03T03:25:57.998Z,6.3
2023-04-03T03:27:05.042Z,6.3
2023-04-03T03:28:12.127Z,6.3
2023-04-03T03:29:19.399Z,6.2
2023-04-03T03:30:25.814Z,6.2
2023-04-03T03:31:33.085Z,6.2
2023-04-03T03:32:40.167Z,6.2
2023-04-03T03:33:47.256Z,6.1
2023-04-03T03:34:54.249Z,6.1
2023-04-03T03:36:00.961Z,6.1
2023-04-03T03:37:08.053Z,6.1
2023-04-03T03:38:15.124Z,6.1
2023-04-03T03:39:22.317Z,6.1
2023-04-03T03:40:29.300Z,6.1
2023-04-03T03:41:35.920Z,6
2023-04-03T03:42:43.039Z,6
2023-04-03T03:43:50.232Z,6
2023-04-03T03:44:57.140Z,5.9
2023-04-03T03:46:03.733Z,6
2023-04-03T03:47:10.968Z,5.9
2023-04-03T03:48:18.028Z,5.9
2023-04-03T03:49:25.224Z,5.9
2023-04-03T03:50:32.254Z,5.8
2023-04-03T03:51:38.835Z,5.8
2023-04-03T03:52:45.919Z,5.8
2023-04-03T03:53:53.104Z,5.8
2023-04-03T03:55:00.170Z,5.7
2023-04-03T03:56:07.351Z,5.7
2023-04-03T03:57:13.926Z,5.7
2023-04-03T03:58:20.970Z,5.7
2023-04-03T03:59:27.987Z,5.7
2023-04-03T04:01:42.248Z,5.6
2023-04-03T04:02:48.864Z,5.6
2023-04-03T04:03:56.058Z,5.6
2023-04-03T04:05:02.971Z,5.6
2023-04-03T04:06:10.127Z,5.5
2023-04-03T04:07:17.182Z,5.5
2023-04-03T04:08:23.877Z,5.5
2023-04-03T04:09:31.024Z,5.5
2023-04-03T04:10:38.032Z,5.4
2023-04-03T04:11:45.186Z,5.4
2023-04-03T04:12:52.308Z,5.4
2023-04-03T04:13:58.821Z,5.4
2023-04-03T04:15:05.955Z,5.4
2023-04-03T04:16:13.090Z,5.3
2023-04-03T04:17:20.067Z,5.3
2023-04-03T04:18:27.296Z,5.3
2023-04-03T04:19:34.274Z,5.3
2023-04-03T04:20:40.924Z,5.3
2023-04-03T04:21:48.059Z,5.3
2023-04-03T04:22:55.232Z,5.3
2023-04-03T04:24:02.403Z,5.3
2023-04-03T04:25:08.860Z,5.3
2023-04-03T04:26:16.011Z,5.3
2023-04-03T04:27:23.126Z,5.3
2023-04-03T04:28:30.069Z,5.2
2023-04-03T04:29:37.214Z,5.3
2023-04-03T04:30:43.924Z,5.2
2023-04-03T04:31:50.869Z,5.2
2023-04-03T04:32:58.103Z,5.2
2023-04-03T04:34:05.266Z,5.2
2023-04-03T04:35:14.048Z,5.2
2023-04-03T04:36:18.866Z,5.2
2023-04-03T04:37:26.018Z,5.2
2023-04-03T04:38:33.114Z,5.2
2023-04-03T04:39:40.210Z,5.2
2023-04-03T04:40:47.234Z,5.2
2023-04-03T04:41:53.908Z,5.2
2023-04-03T04:43:00.882Z,5.2
2023-04-03T04:44:08.158Z,5.2
2023-04-03T04:45:15.309Z,5.2
2023-04-03T04:46:22.449Z,5.2
2023-04-03T04:47:28.950Z,5.2
2023-04-03T04:48:36.032Z,5.2
2023-04-03T04:49:43.006Z,5.2
2023-04-03T04:50:50.230Z,5.2
2023-04-03T04:51:57.360Z,5.2
2023-04-03T04:53:03.829Z,5.2
2023-04-03T04:54:11.108Z,5.2
2023-04-03T04:55:18.007Z,5.2
2023-04-03T04:56:25.234Z,5.2
2023-04-03T04:57:32.457Z,5.2
2023-04-03T04:58:38.979Z,5.2
2023-04-03T04:59:46.098Z,5.2
2023-04-03T05:00:53.114Z,5.2
2023-04-03T05:02:00.176Z,5.2
2023-04-03T05:03:07.284Z,5.2
2023-04-03T05:05:20.974Z,5.2
2023-04-03T05:06:28.099Z,5.2
2023-04-03T05:07:35.266Z,5.2
2023-04-03T05:08:42.272Z,5.2
2023-04-03T05:09:48.943Z,5.2
2023-04-03T05:10:56.521Z,5.2
2023-04-03T05:12:03.144Z,5.2
2023-04-03T05:13:10.220Z,5.2
2023-04-03T05:14:16.870Z,5.2
2023-04-03T05:15:23.972Z,5.2
2023-04-03T05:16:31.099Z,5.2
2023-04-03T05:17:38.216Z,5.2
2023-04-03T05:18:45.374Z,5.2
2023-04-03T05:19:52.301Z,5.1
2023-04-03T05:20:59.037Z,5.1
2023-04-03T05:22:06.073Z,5.1
2023-04-03T05:23:13.574Z,5.1
2023-04-03T05:24:20.352Z,5.1
2023-04-03T05:25:34.000Z,5.1
2023-04-03T05:26:33.980Z,5.1
2023-04-03T05:27:41.073Z,5.1
2023-04-03T05:28:48.214Z,5
2023-04-03T05:29:55.271Z,5
2023-04-03T05:31:01.926Z,5
2023-04-03T05:32:08.953Z,5
2023-04-03T05:33:16.125Z,5
2023-04-03T05:34:23.238Z,5
2023-04-03T05:35:30.174Z,5
2023-04-03T05:36:36.798Z,5
2023-04-03T05:37:43.865Z,5
2023-04-03T05:38:51.076Z,5
2023-04-03T05:39:58.090Z,5
2023-04-03T05:41:08.403Z,5
2023-04-03T05:42:11.876Z,4.9
2023-04-03T05:43:18.967Z,4.9
2023-04-03T05:44:26.037Z,4.9
2023-04-03T05:45:33.256Z,4.9
2023-04-03T05:46:40.254Z,4.9
2023-04-03T05:47:46.896Z,4.9
2023-04-03T05:48:53.963Z,4.9
2023-04-03T05:50:01.180Z,4.9
2023-04-03T05:51:08.474Z,4.9
2023-04-03T05:52:15.302Z,4.9
2023-04-03T05:53:21.804Z,4.9
2023-04-03T05:54:28.931Z,4.9
2023-04-03T05:55:36.367Z,4.9
2023-04-03T05:56:43.279Z,4.9
2023-04-03T05:57:50.338Z,4.9
2023-04-03T05:58:56.907Z,4.9
2023-04-03T06:00:04.152Z,4.9
2023-04-03T06:02:18.210Z,4.8
2023-04-03T06:03:25.550Z,4.8
2023-04-03T06:04:32.010Z,4.8
2023-04-03T06:05:39.203Z,4.8
2023-04-03T06:06:46.045Z,4.8
2023-04-03T06:09:01.546Z,4.7
2023-04-03T06:10:06.954Z,4.8
2023-04-03T06:11:14.049Z,4.7
2023-04-03T06:12:21.132Z,4.7
2023-04-03T06:13:28.209Z,4.7
2023-04-03T06:14:35.362Z,4.7
2023-04-03T06:15:41.949Z,4.7
2023-04-03T06:16:49.036Z,4.7
2023-04-03T06:17:56.120Z,4.6
2023-04-03T06:19:03.191Z,4.7
2023-04-03T06:20:10.366Z,4.7
2023-04-03T06:21:16.970Z,4.6
2023-04-03T06:22:24.063Z,4.7
2023-04-03T06:23:31.017Z,4.6
2023-04-03T06:24:38.277Z,4.7
2023-04-03T06:25:45.340Z,4.6
2023-04-03T06:26:52.530Z,4.6
2023-04-03T06:27:59.055Z,4.6
2023-04-03T06:29:06.180Z,4.6
2023-04-03T06:30:13.263Z,4.7
2023-04-03T06:31:20.739Z,4.6
2023-04-03T06:32:27.130Z,4.6
2023-04-03T06:33:33.965Z,4.6
2023-04-03T06:34:41.034Z,4.7
2023-04-03T06:35:48.305Z,4.7
2023-04-03T06:36:55.358Z,4.8
2023-04-03T06:38:01.870Z,4.8
2023-04-03T06:39:09.152Z,4.8
2023-04-03T06:40:16.198Z,4.9
2023-04-03T06:41:23.343Z,4.9
2023-04-03T06:42:30.335Z,4.9
2023-04-03T06:43:36.954Z,5
2023-04-03T06:44:43.972Z,5
2023-04-03T06:45:51.248Z,5
2023-04-03T06:46:58.165Z,5
2023-04-03T06:48:05.557Z,5
2023-04-03T06:49:11.931Z,5
2023-04-03T06:50:19.071Z,5
2023-04-03T06:51:26.065Z,5.1
2023-04-03T06:52:33.387Z,5.1
2023-04-03T06:53:40.467Z,5.2
2023-04-03T06:54:47.074Z,5.2
2023-04-03T06:55:54.158Z,5.2
2023-04-03T06:57:01.106Z,5.2
2023-04-03T06:58:08.309Z,5.3
2023-04-03T06:59:15.308Z,5.3
2023-04-03T07:00:21.911Z,5.3
2023-04-03T07:01:29.175Z,5.4
2023-04-03T07:02:36.191Z,5.4
2023-04-03T07:03:43.330Z,5.5
2023-04-03T07:04:50.394Z,5.5
2023-04-03T07:05:56.908Z,5.5
2023-04-03T07:07:04.139Z,5.6
2023-04-03T07:08:11.164Z,5.7
2023-04-03T07:09:18.349Z,5.7
2023-04-03T07:10:24.945Z,5.7
2023-04-03T07:12:38.987Z,5.9
2023-04-03T07:13:46.350Z,5.9
2023-04-03T07:14:53.352Z,6
2023-04-03T07:16:00.011Z,6.1
2023-04-03T07:17:06.922Z,6.2
2023-04-03T07:18:14.281Z,6.3
2023-04-03T07:19:21.155Z,6.5
2023-04-03T07:20:28.397Z,6.7
2023-04-03T07:21:34.814Z,6.9
2023-04-03T07:22:42.345Z,7.1
2023-04-03T07:24:56.258Z,7.4
2023-04-03T07:26:03.428Z,7.6
2023-04-03T07:27:10.258Z,7.7
2023-04-03T07:28:17.024Z,7.9
2023-04-03T07:30:31.309Z,8.2
2023-04-03T07:31:38.394Z,8.4
2023-04-03T07:32:45.335Z,8.5
2023-04-03T07:33:52.036Z,8.7
2023-04-03T07:34:59.446Z,9
2023-04-03T07:36:06.282Z,9.1
2023-04-03T07:37:13.404Z,9.3
2023-04-03T07:38:19.945Z,9.4
2023-04-03T07:39:27.004Z,9.5
2023-04-03T07:40:34.053Z,9.6
2023-04-03T07:41:41.176Z,9.7
2023-04-03T07:42:48.398Z,9.7
2023-04-03T07:43:55.012Z,9.8
2023-04-03T07:45:02.029Z,9.9
2023-04-03T07:46:09.153Z,10
2023-04-03T07:47:16.179Z,10.1
2023-04-03T07:48:23.270Z,10.1
2023-04-03T07:49:29.882Z,10.1
2023-04-03T07:50:37.078Z,10.1
2023-04-03T07:51:44.138Z,10.1
2023-04-03T07:52:51.149Z,10.1
2023-04-03T07:53:58.442Z,10.1
2023-04-03T07:55:05.011Z,10.1
2023-04-03T07:56:12.128Z,10.1
2023-04-03T07:57:19.171Z,10.1
2023-04-03T07:58:26.263Z,10.1
2023-04-03T07:59:33.501Z,10.1
2023-04-03T08:00:39.843Z,10.1
2023-04-03T08:01:46.985Z,10.1
2023-04-03T08:02:54.385Z,10.1
2023-04-03T08:04:01.538Z,10.2
2023-04-03T08:05:08.475Z,10.3
2023-04-03T08:06:16.206Z,10.4
2023-04-03T08:07:21.991Z,10.4
2023-04-03T08:08:29.164Z,10.4
2023-04-03T08:09:36.421Z,10.4
2023-04-03T08:10:42.779Z,10.4
2023-04-03T08:11:49.857Z,10.5
2023-04-03T08:12:57.146Z,10.6
2023-04-03T08:14:04.220Z,10.6
2023-04-03T08:16:18.308Z,10.5
2023-04-03T08:17:25.084Z,10.6
2023-04-03T08:18:32.076Z,10.7
2023-04-03T08:19:39.218Z,10.8
2023-04-03T08:20:46.378Z,10.8
2023-04-03T08:21:53.041Z,10.9
2023-04-03T08:22:59.872Z,11
2023-04-03T08:24:07.140Z,11.1
2023-04-03T08:25:14.279Z,11.1
2023-04-03T08:26:21.198Z,11.2
2023-04-03T08:27:27.958Z,11.3
2023-04-03T08:28:34.990Z,11.4
2023-04-03T08:29:42.063Z,11.4
2023-04-03T08:30:49.255Z,11.4
2023-04-03T08:31:56.220Z,11.5
2023-04-03T08:33:03.070Z,11.4
2023-04-03T08:34:10.545Z,11.5
2023-04-03T08:35:17.040Z,11.5
2023-04-03T08:36:24.337Z,11.6
2023-04-03T08:37:31.418Z,11.7
2023-04-03T08:38:37.816Z,11.7
2023-04-03T08:39:44.972Z,11.6
2023-04-03T08:40:52.031Z,11.6
2023-04-03T08:41:59.401Z,11.5
2023-04-03T08:43:06.243Z,11.5
2023-04-03T08:44:12.800Z,11.5
2023-04-03T08:45:20.004Z,11.5
2023-04-03T08:46:27.076Z,11.5
2023-04-03T08:47:34.309Z,11.5
2023-04-03T08:48:41.308Z,11.6
2023-04-03T08:49:47.925Z,11.6
2023-04-03T08:50:54.940Z,11.7
2023-04-03T08:52:02.228Z,11.7
2023-04-03T08:53:09.168Z,11.7
2023-04-03T08:54:16.267Z,11.7
2023-04-03T08:55:22.855Z,11.6
2023-04-03T08:56:30.065Z,11.6
2023-04-03T08:58:44.249Z,11.6
2023-04-03T08:59:51.396Z,11.5
2023-04-03T09:00:57.833Z,11.4
2023-04-03T09:02:05.168Z,11.5
2023-04-03T09:03:12.126Z,11.5
2023-04-03T09:04:19.345Z,11.6
2023-04-03T09:05:26.345Z,11.5
2023-04-03T09:06:32.956Z,11.5
2023-04-03T09:07:39.932Z,11.6
2023-04-03T09:08:47.083Z,11.6
2023-04-03T09:09:54.342Z,11.6
2023-04-03T09:11:01.315Z,11.6
2023-04-03T09:12:07.840Z,11.6
2023-04-03T09:13:15.073Z,11.6
2023-04-03T09:14:22.129Z,11.7
2023-04-03T09:15:38.329Z,11.8
2023-04-03T09:16:36.468Z,11.9
2023-04-03T09:17:43.151Z,12
2023-04-03T09:19:57.232Z,12.1
2023-04-03T09:21:04.349Z,12.2
2023-04-03T09:22:11.379Z,12.3
2023-04-03T09:23:17.855Z,12.4
2023-04-03T09:24:25.106Z,12.4
2023-04-03T09:25:32.337Z,12.5
2023-04-03T09:26:39.170Z,12.6
2023-04-03T09:27:45.892Z,12.6
2023-04-03T09:28:52.924Z,12.6
2023-04-03T09:30:00.169Z,12.7
2023-04-03T09:31:08.575Z,12.7
2023-04-03T09:32:14.344Z,12.7
2023-04-03T09:33:20.915Z,12.8
2023-04-03T09:34:27.948Z,12.9
2023-04-03T09:35:44.813Z,12.9
2023-04-03T09:36:42.197Z,13
2023-04-03T09:37:49.288Z,13
2023-04-03T09:38:55.914Z,13.1
2023-04-03T09:40:02.953Z,13.2
2023-04-03T09:41:10.072Z,13.2
2023-04-03T09:42:17.197Z,13.2
2023-04-03T09:43:24.311Z,13.3
2023-04-03T09:44:30.895Z,13.3
2023-04-03T09:45:38.005Z,13.3
2023-04-03T09:46:45.051Z,13.4
2023-04-03T09:47:52.308Z,13.4
2023-04-03T09:49:08.365Z,13.4
2023-04-03T09:50:05.910Z,13.4
2023-04-03T09:51:12.923Z,13.5
2023-04-03T09:52:20.130Z,13.5
2023-04-03T09:53:27.232Z,13.5
2023-04-03T09:54:34.449Z,13.5
2023-04-03T09:55:41.155Z,13.5
2023-04-03T09:56:47.983Z,13.6
2023-04-03T09:57:55.043Z,13.6
2023-04-03T09:59:02.306Z,13.7
2023-04-03T10:00:09.329Z,13.7
2023-04-03T10:01:16.028Z,13.7
2023-04-03T10:02:23.050Z,13.8
2023-04-03T10:03:30.415Z,13.9
2023-04-03T10:04:37.290Z,13.9
2023-04-03T10:05:44.260Z,13.9
2023-04-03T10:06:50.949Z,13.9
2023-04-03T10:08:03.623Z,14
2023-04-03T10:09:05.276Z,14.1
2023-04-03T10:10:12.451Z,14.2
2023-04-03T10:11:19.415Z,14.2
2023-04-03T10:12:25.931Z,14.3
2023-04-03T10:13:36.227Z,14.3
2023-04-03T10:14:40.092Z,14.2
2023-04-03T10:15:47.331Z,14.2
2023-04-03T10:16:54.396Z,14.2
2023-04-03T10:18:06.402Z,14.2
2023-04-03T10:19:08.030Z,14.2
2023-04-03T10:20:15.346Z,14.2
2023-04-03T10:21:27.508Z,14.3
2023-04-03T10:23:35.876Z,14.2
2023-04-03T10:24:43.022Z,14.2
2023-04-03T10:26:57.330Z,14.3
2023-04-03T10:28:04.417Z,14.3
2023-04-03T10:29:10.830Z,14.3
2023-04-03T10:30:18.128Z,14.2
2023-04-03T10:31:25.286Z,14.3
2023-04-03T10:32:32.484Z,14.3
2023-04-03T10:33:39.254Z,14.3
2023-04-03T10:34:51.720Z,14.4
2023-04-03T10:35:53.158Z,14.4
2023-04-03T10:37:00.240Z,14.4
2023-04-03T10:38:07.187Z,14.4
2023-04-03T10:39:14.037Z,14.4
2023-04-03T10:40:21.048Z,14.5
2023-04-03T10:41:28.624Z,14.6
2023-04-03T10:42:35.267Z,14.6
2023-04-03T10:43:42.512Z,14.6
2023-04-03T10:44:48.987Z,14.7
2023-04-03T10:45:56.034Z,14.7
2023-04-03T10:47:03.106Z,14.7
2023-04-03T10:48:10.142Z,14.6
2023-04-03T10:49:17.431Z,14.6
2023-04-03T10:50:23.810Z,14.6
2023-04-03T10:51:30.868Z,14.6
2023-04-03T10:52:39.987Z,14.7
2023-04-03T10:53:45.222Z,14.7
2023-04-03T10:54:52.334Z,14.8
2023-04-03T10:55:58.770Z,14.8
2023-04-03T10:57:12.459Z,14.9
2023-04-03T10:58:13.139Z,14.9
2023-04-03T10:59:20.250Z,15
2023-04-03T11:00:27.353Z,15
2023-04-03T11:01:33.891Z,15
2023-04-03T11:02:41.066Z,14.9
2023-04-03T11:03:48.200Z,14.9
2023-04-03T11:04:55.252Z,14.9
2023-04-03T11:06:02.253Z,14.9
2023-04-03T11:07:18.013Z,14.7
2023-04-03T11:08:16.120Z,14.7
2023-04-03T11:09:23.048Z,14.7
2023-04-03T11:10:30.106Z,14.7
2023-04-03T11:11:37.364Z,14.7
2023-04-03T11:12:44.201Z,14.8
2023-04-03T11:13:51.053Z,14.8
2023-04-03T11:14:58.205Z,14.8
2023-04-03T11:16:05.431Z,14.9
2023-04-03T11:17:12.249Z,14.9
2023-04-03T11:18:18.920Z,14.9
2023-04-03T11:19:26.023Z,14.9
2023-04-03T11:20:33.110Z,14.9
2023-04-03T11:21:40.226Z,14.9
2023-04-03T11:22:46.806Z,14.8
2023-04-03T11:23:53.933Z,14.8
2023-04-03T11:25:00.962Z,14.7
2023-04-03T11:26:08.029Z,14.7
2023-04-03T11:27:15.168Z,14.7
2023-04-03T11:28:21.745Z,14.7
2023-04-03T11:29:35.448Z,14.7
2023-04-03T11:30:36.165Z,14.7
2023-04-03T11:31:43.152Z,14.7
2023-04-03T11:32:50.228Z,14.7
2023-04-03T11:33:56.755Z,14.7
2023-04-03T11:35:03.873Z,14.7
2023-04-03T11:36:22.883Z,14.7
2023-04-03T11:37:45.012Z,14.7
2023-04-03T11:38:25.165Z,14.7
2023-04-03T11:39:31.869Z,14.7
2023-04-03T11:40:38.829Z,14.7
2023-04-03T11:41:46.070Z,14.8
2023-04-03T11:42:53.183Z,14.7
2023-04-03T11:44:00.248Z,14.7
2023-04-03T11:45:07.304Z,14.7
2023-04-03T11:46:13.944Z,14.7
2023-04-03T11:47:21.206Z,14.7
2023-04-03T11:48:28.159Z,14.6
2023-04-03T11:49:35.358Z,14.6
2023-04-03T11:50:41.962Z,14.5
2023-04-03T11:51:48.958Z,14.4
2023-04-03T11:52:56.107Z,14.3
2023-04-03T11:55:10.252Z,14.3
2023-04-03T11:56:16.900Z,14.3
2023-04-03T11:57:24.299Z,14.3
2023-04-03T11:58:30.959Z,14.3
2023-04-03T11:59:38.123Z,14.2
2023-04-03T12:00:45.227Z,14.2
2023-04-03T12:01:51.932Z,14.2
2023-04-03T12:02:59.198Z,14.1
2023-04-03T12:04:06.253Z,14.1
2023-04-03T12:05:13.174Z,14.1
2023-04-03T12:06:20.180Z,14.2
2023-04-03T12:07:26.818Z,14.2
2023-04-03T12:08:33.916Z,14.2
2023-04-03T12:09:41.144Z,14.3
2023-04-03T12:10:48.088Z,14.3
2023-04-03T12:11:55.346Z,14.1
2023-04-03T12:13:01.816Z,13.9
2023-04-03T12:14:08.981Z,13.8
2023-04-03T12:15:16.215Z,13.6
2023-04-03T12:16:23.281Z,13.5
2023-04-03T12:17:30.312Z,13.4
2023-04-03T12:18:36.823Z,13.3
2023-04-03T12:19:44.060Z,13.2
2023-04-03T12:20:51.093Z,13.1
2023-04-03T12:21:58.172Z,13
2023-04-03T12:23:06.233Z,12.9
2023-04-03T12:24:11.832Z,12.9
2023-04-03T12:25:19.018Z,12.7
2023-04-03T12:26:28.260Z,12.7
2023-04-03T12:27:33.136Z,12.6
2023-04-03T12:28:40.344Z,12.5
2023-04-03T12:29:46.951Z,12.4
2023-04-03T12:30:54.139Z,12.3
2023-04-03T12:32:01.007Z,12.3
2023-04-03T12:33:13.233Z,12.2
2023-04-03T12:34:15.339Z,12.2
2023-04-03T12:35:22.004Z,12.2
2023-04-03T12:36:28.898Z,12.2
2023-04-03T12:37:36.191Z,12.2
2023-04-03T12:38:43.226Z,12.2
2023-04-03T12:39:49.862Z,12.2
2023-04-03T12:40:56.974Z,12.2
2023-04-03T12:42:04.017Z,12.1
2023-04-03T12:43:11.104Z,12.2
2023-04-03T12:44:18.123Z,12.2
2023-04-03T12:45:25.094Z,12.1
2023-04-03T12:46:32.100Z,12.1
2023-04-03T12:47:39.149Z,12.1
2023-04-03T12:48:46.590Z,12.2
2023-04-03T12:49:53.203Z,12.2
2023-04-03T12:50:59.824Z,12.2
2023-04-03T12:52:06.943Z,12.2
2023-04-03T12:53:14.056Z,12.2
2023-04-03T12:54:21.112Z,12.3
2023-04-03T12:55:28.194Z,12.3
2023-04-03T12:56:34.762Z,12.3
2023-04-03T12:57:41.880Z,12.3
2023-04-03T12:58:48.944Z,12.3
2023-04-03T12:59:56.109Z,12.3
2023-04-03T13:01:03.194Z,12.3
2023-04-03T13:02:09.988Z,12.3
2023-04-03T13:03:17.188Z,12.3
2023-04-03T13:04:24.101Z,12.3
2023-04-03T13:05:31.183Z,12.3
2023-04-03T13:06:37.642Z,12.3
2023-04-03T13:07:44.901Z,12.3
2023-04-03T13:08:51.955Z,12.4
2023-04-03T13:09:59.110Z,12.4
2023-04-03T13:11:08.736Z,12.4
2023-04-03T13:12:13.298Z,12.4
2023-04-03T13:13:19.761Z,12.5
2023-04-03T13:14:27.051Z,12.6
2023-04-03T13:15:34.113Z,12.6
2023-04-03T13:16:41.273Z,12.6
2023-04-03T13:17:47.718Z,12.6
2023-04-03T13:18:54.983Z,12.6
2023-04-03T13:20:02.038Z,12.7
2023-04-03T13:21:08.981Z,12.7
2023-04-03T13:23:22.694Z,12.7
2023-04-03T13:24:29.895Z,12.7
2023-04-03T13:25:37.110Z,12.7
2023-04-03T13:26:44.028Z,12.6
2023-04-03T13:27:53.785Z,12.6
2023-04-03T13:29:05.139Z,12.5
2023-04-03T13:30:04.938Z,12.4
2023-04-03T13:31:11.997Z,12.3
2023-04-03T13:32:30.200Z,12.3
2023-04-03T13:34:32.910Z,12.2
2023-04-03T13:35:39.969Z,12.1
2023-04-03T13:36:46.923Z,12
2023-04-03T13:37:54.132Z,12
2023-04-03T13:39:01.172Z,12
2023-04-03T13:40:07.952Z,11.9
2023-04-03T13:41:14.961Z,11.9
2023-04-03T13:42:22.051Z,11.9
2023-04-03T13:43:29.132Z,11.9
2023-04-03T13:44:36.391Z,11.9
2023-04-03T13:45:42.785Z,11.9
2023-04-03T13:46:49.904Z,12
2023-04-03T13:47:57.099Z,12
2023-04-03T13:49:04.040Z,12
2023-04-03T13:50:11.222Z,12
2023-04-03T13:51:17.788Z,12.1
2023-04-03T13:52:25.452Z,12.2
2023-04-03T13:53:51.563Z,12.2
2023-04-03T13:54:39.023Z,12.2
2023-04-03T13:55:46.410Z,12.3
2023-04-03T13:56:52.990Z,12.3
2023-04-03T13:57:59.937Z,12.3
2023-04-03T13:59:06.961Z,12.4
2023-04-03T14:00:14.092Z,12.4
2023-04-03T14:01:21.297Z,12.4
2023-04-03T14:02:27.805Z,12.4
2023-04-03T14:03:34.928Z,12.4
2023-04-03T14:04:42.247Z,12.5
2023-04-03T14:05:49.190Z,12.6
2023-04-03T14:06:56.174Z,12.6
2023-04-03T14:08:02.878Z,12.6
2023-04-03T14:09:09.939Z,12.7
2023-04-03T14:10:17.124Z,12.7
2023-04-03T14:11:24.067Z,12.7
2023-04-03T14:12:32.386Z,12.8
2023-04-03T14:13:37.941Z,12.8
2023-04-03T14:14:44.914Z,12.9
2023-04-03T14:15:52.385Z,12.9
2023-04-03T14:16:59.289Z,12.9
2023-04-03T14:18:07.832Z,12.9
2023-04-03T14:19:12.766Z,12.9
2023-04-03T14:20:20.246Z,12.9
2023-04-03T14:21:27.101Z,12.9
2023-04-03T14:22:34.640Z,12.9
2023-04-03T14:23:41.315Z,12.9
2023-04-03T14:24:48.158Z,12.9
2023-04-03T14:25:55.056Z,12.9
2023-04-03T14:27:02.087Z,12.9
2023-04-03T14:28:09.059Z,12.9
2023-04-03T14:29:16.340Z,12.9
2023-04-03T14:30:22.950Z,12.9
2023-04-03T14:31:30.203Z,12.9
2023-04-03T14:32:37.173Z,12.8
2023-04-03T14:33:44.231Z,12.8
2023-04-03T14:34:50.657Z,12.8
2023-04-03T14:35:58.103Z,12.8
2023-04-03T14:38:12.118Z,12.7
2023-04-03T14:39:19.074Z,12.7
2023-04-03T14:40:25.773Z,12.7
2023-04-03T14:41:32.990Z,12.6
2023-04-03T14:42:39.933Z,12.6
2023-04-03T14:43:47.017Z,12.6
2023-04-03T14:44:54.258Z,12.6
2023-04-03T14:46:00.778Z,12.6
2023-04-03T14:47:11.937Z,12.5
2023-04-03T14:48:14.942Z,12.5
2023-04-03T14:49:22.114Z,12.5
2023-04-03T14:51:35.785Z,12.4
2023-04-03T14:52:42.892Z,12.4
2023-04-03T14:53:50.027Z,12.3
2023-04-03T14:54:57.126Z,12.3
2023-04-03T14:56:04.222Z,12.3
2023-04-03T14:57:10.813Z,12.3
2023-04-03T14:58:17.782Z,12.3
2023-04-03T14:59:24.923Z,12.2
2023-04-03T15:00:32.065Z,12.2
2023-04-03T15:01:39.291Z,12.2
2023-04-03T15:02:46.068Z,12.2
2023-04-03T15:03:53.013Z,12.2
2023-04-03T15:04:59.974Z,12.2
2023-04-03T15:06:07.053Z,12.1
2023-04-03T15:07:14.152Z,12.1
2023-04-03T15:08:20.853Z,12.1
2023-04-03T15:09:27.894Z,12.1
2023-04-03T15:10:34.937Z,12
2023-04-03T15:11:42.100Z,12
2023-04-03T15:12:49.235Z,12
2023-04-03T15:13:55.923Z,12
2023-04-03T15:15:04.065Z,12.1
2023-04-03T15:16:10.063Z,12.1
2023-04-03T15:17:17.184Z,12.1
2023-04-03T15:18:24.293Z,12.2
2023-04-03T15:19:30.819Z,12.2
2023-04-03T15:20:38.267Z,12.2
2023-04-03T15:21:44.970Z,12.2
2023-04-03T15:22:52.159Z,12.2
2023-04-03T15:24:01.582Z,12.2
2023-04-03T15:25:05.765Z,12.2
2023-04-03T15:26:12.857Z,12.2
2023-04-03T15:27:20.073Z,12.2
2023-04-03T15:28:27.086Z,12.2
2023-04-03T15:29:33.820Z,12.2
2023-04-03T15:30:41.219Z,12.2
2023-04-03T15:31:47.875Z,12.2
2023-04-03T15:32:55.146Z,12.3
2023-04-03T15:34:02.252Z,12.3
2023-04-03T15:35:08.640Z,12.4